AirNav   Bose Proflight aviation headeet
 
 315 users online  

4R9 Jeremiah Denton Airport
Dauphin Island, Alabama, USA

GOING TO DAUPHIN ISLAND?


FAA INFORMATION EFFECTIVE 03 JANUARY 2019

Location

FAA Identifier: 4R9
Lat/Long: 30-15-37.7700N / 088-07-38.9000W
30-15.629500N / 088-07.648333W
30.2604917 / -88.1274722
(estimated)
Elevation: 5.3 ft. / 1.6 m (surveyed)
Variation: 02E (1985)
Time zone: UTC -6 (UTC -5 during Daylight Saving Time)
Zip code: 36528

Airport Operations

Airport use: Open to the public
Activation date: 02/1967
Control tower: no
ARTCC: HOUSTON CENTER
FSS: ANNISTON FLIGHT SERVICE STATION
NOTAMs facility: ANB (NOTAM-D service available)
Attendance: UNATNDD
Wind indicator: lighted
Segmented circle: yes
Lights: ACTVT MIRL RY 12/30 AND PVASI RYS 12 & 30 - CTAF.
Beacon: white-green (lighted land airport)
Operates sunset to sunrise.

Airport Communications

CTAF/UNICOM: 122.8
WX AWOS-3PT at CQF (18 nm NE): 118.425 (251-928-3242)

Nearby radio navigation aids

VOR radial/distance  VOR name  Freq  Var
BFMr186/21.5BROOKLEY VORTAC112.8004E
SJIr152/30.4SEMMES VORTAC115.3005E

 
NDB name  Hdg/Dist  Freq  Var  ID
WISLE164/31.424801WMOB -- --- -...

Airport Services

Parking: tiedowns
Airframe service: NONE
Powerplant service: NONE
Bottled oxygen: NONE
Bulk oxygen: NONE

Runway Information

Runway 12/30

Dimensions: 3000 x 80 ft. / 914 x 24 m
Surface: asphalt, in good condition
Weight bearing capacity: 
Single wheel: 30.0
Runway edge lights: medium intensity
RUNWAY 12  RUNWAY 30
Latitude: 30-15.765500N30-15.493500N
Longitude: 088-07.886500W088-07.410167W
Elevation: 4.7 ft.5.3 ft.
Traffic pattern: leftleft
Displaced threshold: 202 ft.140 ft.
Markings: basic, in good conditionbasic, in good condition
Visual slope indicator: pulsating/steady burning VASI on leftpulsating/steady burning VASI on right
Touchdown point: yes, no lightsyes, no lights
Obstructions: none
RY 12 APCH SLOPE 50:1 TO DSPLCD THLD.
45 ft. trees, 1119 ft. from runway, 19 ft. left of centerline, 20:1 slope to clear
RY 30 APCH SLOPE 27:1 TO DSPLCD THLD.

Airport Ownership and Management from official FAA records

Ownership: Publicly-owned
Owner: MOBILE COUNTY
205 GOVERNMENT ST
MOBILE, AL 36644
Phone 251-824-2831
Manager: WILLIAM MEREDITH
11562 FAIRWAY DR
IRVINGTON, AL 36544
Phone 251-824-2831

Airport Operational Statistics

Aircraft operations: avg 70/week *
60% transient general aviation
40% local general aviation
* for 12-month period ending 31 May 2019

Additional Remarks

BIRDS ON & INVOF ARPT.
EXTSV BANNER TOW OPNS ARND IS CST LN & N TO MOBILE.

Instrument Procedures

There are no published instrument procedures at 4R9.

Some nearby airports with instrument procedures:

2R5 - St Elmo Airport (16 nm NW)
KCQF - H L Sonny Callahan Airport (18 nm NE)
KBFM - Mobile Downtown Airport (22 nm N)
KJKA - Jack Edwards National Airport (24 nm E)
KPQL - Trent Lott International Airport (24 nm NW)
 
Loc | Ops | Rwys | IFR | FBO | Links
Com | Nav | Svcs | Stats | Notes

Continental Motors
AirBoss

 
Area around 4R9 (Jeremiah Denton Airport)
 
Road maps at: MapQuest Bing Google
 
Aerial photo
WARNING: Photo may not be current or correct
Aerial photo of 4R9 (Jeremiah Denton Airport)
Photo taken 02-May-2015
looking southwest.

Do you have a better or more recent aerial photo of Jeremiah Denton Airport that you would like to share? If so, please send us your photo.

 
Sectional chart

 
Airport distance calculator
Flying to Jeremiah Denton Airport? Find the distance to fly.

From to 4R9

Sunrise and sunset
Times for 20-Jan-2019
 Local
(UTC-6)
 Zulu
(UTC)
Morning civil twilight06:2412:24
Sunrise06:5012:50
Sunset17:1823:18
Evening civil twilight17:4323:43

Current date and time
Zulu (UTC)  20-Jan-2019 10:17:14
Local (UTC-6)  20-Jan-2019 04:17:14
 
METAR
KCQF 
18nm NE 
200955Z AUTO 33016G24KT 10SM BKN024 OVC031 03/00 A3001 RMK AO2
KBFM 
22nm N 
200953Z AUTO 31014G23KT 10SM OVC029 05/00 A3004 RMK AO2 PK WND 32031/0900 RAB02E13 SLP172 P0000 T00500000
KJKA 
24nm E 
200955Z AUTO 32013G19KT 10SM OVC030 04/M22 A3001 RMK AO2 T00421225
KPQL 
24nm NW 
201002Z AUTO 32009G17KT 290V350 10SM BKN025 OVC033 05/M01 A3004 RMK AO2 T00501011
KMOB 
26nm N 
200956Z AUTO 32014G24KT 10SM BKN022 OVC027 03/M01 A3004 RMK AO2 RAE20SNB06E21 SLP170 P0000 T00331006
TAF
KBFM 
22nm N 
200521Z 2006/2106 31020G26KT P6SM OVC025 FM201700 33015G22KT P6SM SKC FM210000 33006KT P6SM SKC
KMOB 
26nm N 
200521Z 2006/2106 31016G26KT P6SM OVC025 FM201700 34012G18KT P6SM SKC FM210000 33006KT P6SM SKC
NOTAMs
Click for the latest NOTAMs
NOTAMs are issued by the DoD/FAA and will open in a separate window not controlled by AirNav.

 

 
 

Would you like to see your business listed on this page?

 If your business provides an interesting product or service to pilots, flight crews, aircraft, or users of the Jeremiah Denton Airport, you should consider listing it here.  To start the listing process, click on the button below
 
Add a business
 

Other Pages about Jeremiah Denton Airport

www.dauphinisland.cc/airport.htm
gulfinfo.com/...
 
Update a link
 
Copyright © AirNav, LLC. All rights reserved. Privacy Policy  Contact